HomeShort term forecast

Short term forecast

Graphical weather forecast for the next 48 hours for Montreal:
Short term forecast
This weather forecast is automatically refreshed every 3 hours.

Hourly Experimental Forecast for the next 48 hours

Overall summary: Possible drizzle tomorrow morning.

 Date & Hour   Temp   Feel   Baro   Hum   Speed & Bearing   Wind Gust   Precip.%   Precip.   Visibility   Cloud cover   Conditions 
 18/08/2022 - 00:00  20.2°C  20.2°C  1014.1 hPa  74%  9.1 km/h   19.8 km/h  12%  0.02 mm/h  16.1km  96%  Overcast 
 18/08/2022 - 01:00  19.6°C  19.6°C  1013.6 hPa  75%  7.2 km/h   16.1 km/h  9%  0.03 mm/h  16.1km  96%  Overcast 
 18/08/2022 - 02:00  19.4°C  19.4°C  1012.4 hPa  74%  7.9 km/h   18.1 km/h  6%  0.02 mm/h  16.1km  98%  Overcast 
 18/08/2022 - 03:00  19.2°C  19.2°C  1012.0 hPa  75%  8.5 km/h   18.3 km/h  8%  0.02 mm/h  16.1km  98%  Overcast 
 18/08/2022 - 04:00  18.6°C  18.6°C  1011.6 hPa  75%  8.7 km/h   18.2 km/h  8%  0.02 mm/h  16.1km  96%  Overcast 
 18/08/2022 - 05:00  17.8°C  17.8°C  1011.2 hPa  77%  8.7 km/h   17.3 km/h  12%  0.02 mm/h  16.1km  94%  Overcast 
 18/08/2022 - 06:00  17.3°C  17.3°C  1010.9 hPa  80%  9.6 km/h   19.7 km/h  16%  0.05 mm/h  16.1km  94%  Overcast 
 18/08/2022 - 07:00  17.1°C  17.1°C  1010.7 hPa  83%  11.1 km/h   24.8 km/h  26%  0.13 mm/h  16.1km  95%  Possible Drizzle 
 18/08/2022 - 08:00  17.4°C  17.4°C  1011.0 hPa  83%  12.7 km/h   30.8 km/h  29%  0.18 mm/h  16.1km  96%  Possible Drizzle 
 18/08/2022 - 09:00  18.5°C  18.5°C  1010.9 hPa  80%  13.8 km/h   30.9 km/h  24%  0.15 mm/h  16.1km  96%  Overcast 
 18/08/2022 - 10:00  20.0°C  20.0°C  1010.8 hPa  73%  14.0 km/h   28.9 km/h  13%  0.10 mm/h  16.1km  96%  Overcast 
 18/08/2022 - 11:00  21.0°C  21.0°C  1010.5 hPa  69%  14.5 km/h   25.1 km/h  6%  0.06 mm/h  16.1km  96%  Overcast 
 18/08/2022 - 12:00  21.3°C  21.3°C  1010.1 hPa  68%  15.0 km/h   25.7 km/h  4%  0.03 mm/h  16.1km  95%  Overcast 
 18/08/2022 - 13:00  21.0°C  21.0°C  1010.0 hPa  70%  15.4 km/h   26.7 km/h  5%  0.03 mm/h  16.1km  93%  Overcast 
 18/08/2022 - 14:00  21.7°C  21.7°C  1010.5 hPa  67%  14.7 km/h   25.2 km/h  3%  0.01 mm/h  16.1km  94%  Overcast 
 18/08/2022 - 15:00  22.4°C  22.4°C  1010.5 hPa  63%  15.3 km/h   24.1 km/h  0%  --  16.1km  91%  Overcast 
 18/08/2022 - 16:00  22.9°C  22.9°C  1010.6 hPa  59%  15.8 km/h   24.0 km/h  0%  --  16.1km  87%  Mostly Cloudy 
 18/08/2022 - 17:00  22.4°C  22.4°C  1010.7 hPa  61%  15.4 km/h   25.3 km/h  3%  0.01 mm/h  16.1km  85%  Mostly Cloudy 
 18/08/2022 - 18:00  21.4°C  21.4°C  1010.9 hPa  65%  13.8 km/h   24.3 km/h  5%  0.03 mm/h  16.1km  87%  Mostly Cloudy 
 18/08/2022 - 19:00  20.2°C  20.2°C  1011.1 hPa  69%  12.1 km/h   21.6 km/h  6%  0.05 mm/h  16.1km  91%  Overcast 
 18/08/2022 - 20:00  19.0°C  19.0°C  1011.6 hPa  72%  10.9 km/h   21.4 km/h  7%  0.07 mm/h  16.1km  100%  Overcast 
 18/08/2022 - 21:00  18.7°C  18.7°C  1011.9 hPa  74%  9.3 km/h   19.1 km/h  5%  0.05 mm/h  16.1km  99%  Overcast 
 18/08/2022 - 22:00  18.4°C  18.4°C  1012.1 hPa  75%  8.1 km/h   17.0 km/h  4%  0.03 mm/h  16.1km  95%  Overcast 
 18/08/2022 - 23:00  18.1°C  18.1°C  1012.3 hPa  75%  7.4 km/h   15.9 km/h  3%  0.01 mm/h  16.1km  93%  Overcast 
 19/08/2022 - 00:00  17.9°C  17.9°C  1012.4 hPa  75%  7.5 km/h   17.1 km/h  2%  0.01 mm/h  16.1km  90%  Overcast 
 19/08/2022 - 01:00  17.6°C  17.6°C  1012.6 hPa  77%  8.5 km/h   20.6 km/h  0%  --  16.1km  96%  Overcast 
 19/08/2022 - 02:00  17.5°C  17.5°C  1012.8 hPa  78%  8.4 km/h   19.9 km/h  0%  --  16.1km  100%  Overcast 
 19/08/2022 - 03:00  16.9°C  16.9°C  1013.0 hPa  81%  8.3 km/h   20.6 km/h  0%  --  16.1km  84%  Mostly Cloudy 
 19/08/2022 - 04:00  16.1°C  16.1°C  1013.3 hPa  84%  8.2 km/h   21.3 km/h  2%  0.01 mm/h  16.1km  81%  Mostly Cloudy 
 19/08/2022 - 05:00  15.7°C  15.7°C  1013.6 hPa  86%  8.0 km/h   18.7 km/h  4%  0.02 mm/h  16.1km  50%  Partly Cloudy 
 19/08/2022 - 06:00  16.0°C  16.0°C  1014.0 hPa  85%  8.4 km/h   16.6 km/h  4%  0.03 mm/h  16.1km  50%  Partly Cloudy 
 19/08/2022 - 07:00  16.6°C  16.6°C  1014.4 hPa  84%  8.9 km/h   16.1 km/h  3%  0.03 mm/h  16.1km  55%  Partly Cloudy 
 19/08/2022 - 08:00  18.0°C  18.0°C  1014.9 hPa  80%  9.4 km/h   12.3 km/h  0%  --  16.1km  44%  Partly Cloudy 
 19/08/2022 - 09:00  20.0°C  20.1°C  1015.2 hPa  77%  9.9 km/h   10.8 km/h  0%  --  16.1km  43%  Partly Cloudy 
 19/08/2022 - 10:00  22.2°C  22.4°C  1015.5 hPa  73%  10.2 km/h   10.4 km/h  0%  --  16.1km  40%  Partly Cloudy 
 19/08/2022 - 11:00  23.9°C  24.2°C  1015.8 hPa  69%  11.0 km/h   11.2 km/h  0%  --  16.1km  33%  Partly Cloudy 
 19/08/2022 - 12:00  25.3°C  25.5°C  1015.8 hPa  65%  12.2 km/h   13.2 km/h  0%  --  16.1km  18%  Clear 
 19/08/2022 - 13:00  26.4°C  26.6°C  1015.6 hPa  61%  13.8 km/h   15.7 km/h  0%  --  16.1km  17%  Clear 
 19/08/2022 - 14:00  27.5°C  28.6°C  1015.8 hPa  58%  14.7 km/h   17.2 km/h  0%  --  16.1km  30%  Clear 
 19/08/2022 - 15:00  28.3°C  29.4°C  1015.8 hPa  55%  14.7 km/h   17.6 km/h  0%  --  16.1km  19%  Clear 
 19/08/2022 - 16:00  28.8°C  29.8°C  1015.7 hPa  54%  14.0 km/h   17.6 km/h  0%  --  16.1km  22%  Clear 
 19/08/2022 - 17:00  28.7°C  29.8°C  1015.6 hPa  54%  12.8 km/h   16.8 km/h  0%  --  16.1km  23%  Clear 
 19/08/2022 - 18:00  28.0°C  29.2°C  1015.8 hPa  57%  10.9 km/h   15.0 km/h  0%  --  16.1km  24%  Clear 
 19/08/2022 - 19:00  26.4°C  27.5°C  1016.0 hPa  63%  10.4 km/h   17.4 km/h  0%  --  16.1km  25%  Clear 
 19/08/2022 - 20:00  24.9°C  25.2°C  1016.2 hPa  69%  8.6 km/h   18.6 km/h  2%  0.01 mm/h  16.1km  25%  Clear 
 19/08/2022 - 21:00  23.6°C  23.9°C  1016.9 hPa  73%  8.4 km/h   20.2 km/h  2%  0.01 mm/h  16.1km  31%  Clear 
 19/08/2022 - 22:00  22.6°C  22.9°C  1017.3 hPa  76%  8.6 km/h   18.6 km/h  3%  0.03 mm/h  16.1km  24%  Clear 
 19/08/2022 - 23:00  21.7°C  22.0°C  1017.8 hPa  79%  8.7 km/h   18.3 km/h  3%  0.03 mm/h  16.1km  20%  Clear 

 

Past weather and reports

Past weatherFind in this section the past weather conditions, weather archive, graphics, reports and statistics.

Current conditions

Current weather condition for MontrealAll you need to know about the current weather conditions for Montreal. Weather data is updated every 10 minutes.

Weather forecast

Current Montreal weatherSince 2004, celinium.com website has provided accurate weather forecast for Montreal's island.